createdAt,value
2022-12-05T00:05:12.648Z,70.60
2022-12-05T00:07:55.656Z,71.00
2022-12-05T00:10:39.752Z,70.90
2022-12-05T00:13:22.564Z,78.10
2022-12-05T00:18:50.538Z,73.90
2022-12-05T00:21:36.597Z,75.50
2022-12-05T00:24:20.362Z,74.40
2022-12-05T00:27:03.160Z,71.30
2022-12-05T00:32:30.251Z,69.80
2022-12-05T00:35:13.147Z,68.20
2022-12-05T00:40:38.537Z,69.50
2022-12-05T00:43:21.291Z,61.90
2022-12-05T00:48:48.435Z,67.00
2022-12-05T00:51:34.317Z,67.20
2022-12-05T00:54:18.020Z,70.60
2022-12-05T00:57:00.875Z,66.00
2022-12-05T01:02:26.486Z,64.20
2022-12-05T01:07:52.058Z,64.10
2022-12-05T01:10:35.127Z,66.70
2022-12-05T01:13:18.041Z,67.30
2022-12-05T01:16:01.627Z,68.00
2022-12-05T01:18:45.103Z,67.00
2022-12-05T01:21:27.963Z,67.10
2022-12-05T01:26:54.907Z,73.80
2022-12-05T01:29:37.647Z,68.80
2022-12-05T01:32:20.531Z,76.10
2022-12-05T01:35:03.610Z,62.60
2022-12-05T01:37:46.647Z,71.20
2022-12-05T01:40:29.486Z,69.60
2022-12-05T01:45:59.734Z,66.00
2022-12-05T01:48:43.516Z,66.00
2022-12-05T01:51:26.501Z,72.00
2022-12-05T01:54:11.290Z,66.70
2022-12-05T01:57:02.859Z,67.80
2022-12-05T01:59:55.949Z,64.50
2022-12-05T02:02:46.533Z,60.80
2022-12-05T02:05:32.416Z,69.70
2022-12-05T02:08:16.157Z,68.50
2022-12-05T02:10:59.217Z,61.60
2022-12-05T02:13:48.115Z,65.60
2022-12-05T02:16:45.724Z,67.60
2022-12-05T02:19:56.931Z,59.40
2022-12-05T02:23:17.447Z,72.00
2022-12-05T02:26:16.557Z,67.00
2022-12-05T02:29:25.767Z,59.80
2022-12-05T02:32:17.511Z,61.60
2022-12-05T02:35:25.107Z,63.10
2022-12-05T02:38:13.588Z,57.60
2022-12-05T02:41:02.787Z,59.40
2022-12-05T02:43:56.768Z,67.60
2022-12-05T02:46:41.612Z,55.10
2022-12-05T02:49:30.415Z,61.20
2022-12-05T02:52:16.969Z,63.50
2022-12-05T02:55:02.020Z,60.50
2022-12-05T02:57:51.679Z,61.40
2022-12-05T03:00:36.049Z,59.30
2022-12-05T03:03:22.455Z,55.90
2022-12-05T03:06:09.487Z,66.80
2022-12-05T03:09:00.954Z,56.70
2022-12-05T03:11:49.534Z,63.00
2022-12-05T03:14:38.382Z,52.70
2022-12-05T03:17:38.204Z,55.50
2022-12-05T03:20:32.716Z,58.00
2022-12-05T03:23:22.697Z,55.00
2022-12-05T03:26:17.815Z,68.00
2022-12-05T03:29:08.184Z,64.70
2022-12-05T03:32:10.034Z,61.40
2022-12-05T03:35:18.425Z,62.70
2022-12-05T03:38:08.668Z,59.70
2022-12-05T03:41:09.528Z,61.10
2022-12-05T03:44:16.419Z,59.30
2022-12-05T03:47:17.176Z,63.70
2022-12-05T03:50:09.188Z,65.30
2022-12-05T03:53:20.034Z,62.90
2022-12-05T03:56:12.899Z,59.20
2022-12-05T03:59:05.589Z,64.20
2022-12-05T04:01:51.130Z,61.70
2022-12-05T04:04:55.368Z,59.70
2022-12-05T04:07:40.617Z,68.50
2022-12-05T04:10:28.967Z,58.70
2022-12-05T04:13:18.036Z,59.80
2022-12-05T04:16:44.211Z,64.10
2022-12-05T04:20:04.115Z,62.30
2022-12-05T04:22:47.697Z,58.70
2022-12-05T04:26:04.772Z,61.70
2022-12-05T04:28:50.235Z,58.30
2022-12-05T04:31:40.978Z,60.50
2022-12-05T04:34:28.284Z,62.30
2022-12-05T04:37:15.271Z,59.00
2022-12-05T04:40:07.890Z,65.80
2022-12-05T04:42:53.652Z,67.50
2022-12-05T04:45:40.901Z,58.20
2022-12-05T04:48:27.924Z,62.80
2022-12-05T04:51:21.931Z,61.50
2022-12-05T04:54:14.924Z,58.20
2022-12-05T04:59:47.365Z,58.90
2022-12-05T05:02:38.396Z,64.00
2022-12-05T05:05:23.523Z,56.70
2022-12-05T05:08:17.616Z,61.90
2022-12-05T05:11:07.133Z,61.00
2022-12-05T05:13:50.492Z,62.90
2022-12-05T05:16:39.559Z,61.20
2022-12-05T05:19:22.419Z,63.20
2022-12-05T05:24:48.268Z,60.10
2022-12-05T05:30:14.005Z,60.80
2022-12-05T05:33:00.447Z,66.70
2022-12-05T05:35:43.231Z,69.10
2022-12-05T05:41:14.998Z,66.00
2022-12-05T05:43:58.095Z,66.20
2022-12-05T05:46:41.054Z,62.60
2022-12-05T05:49:24.075Z,64.50
2022-12-05T05:52:06.919Z,66.90
2022-12-05T05:57:32.451Z,63.10
2022-12-05T06:03:01.019Z,70.00
2022-12-05T06:05:46.439Z,77.10
2022-12-05T06:08:36.245Z,64.30
2022-12-05T06:11:25.878Z,60.70
2022-12-05T06:14:09.768Z,64.70
2022-12-05T06:16:52.551Z,66.50
2022-12-05T06:22:18.275Z,66.70
2022-12-05T06:27:43.820Z,66.60
2022-12-05T06:30:26.588Z,65.50
2022-12-05T06:36:06.454Z,63.40
2022-12-05T06:38:49.999Z,68.80
2022-12-05T06:41:33.843Z,76.70
2022-12-05T06:44:17.261Z,63.10
2022-12-05T06:47:00.284Z,65.60
2022-12-05T06:49:43.194Z,67.20
2022-12-05T06:52:26.011Z,69.30
2022-12-05T06:57:51.940Z,68.50
2022-12-05T07:00:53.742Z,67.70
2022-12-05T07:03:37.022Z,75.30
2022-12-05T07:06:23.364Z,63.00
2022-12-05T07:09:06.945Z,64.90
2022-12-05T07:11:51.379Z,69.60
2022-12-05T07:14:50.239Z,65.20
2022-12-05T07:17:37.278Z,69.30
2022-12-05T07:20:20.073Z,67.20
2022-12-05T07:23:03.232Z,69.30
2022-12-05T07:25:46.212Z,66.50
2022-12-05T07:28:29.076Z,67.60
2022-12-05T07:31:15.391Z,62.30
2022-12-05T07:33:58.535Z,66.80
2022-12-05T07:36:41.259Z,69.90
2022-12-05T07:39:24.056Z,62.30
2022-12-05T07:44:50.709Z,66.60
2022-12-05T07:47:33.452Z,68.20
2022-12-05T07:52:58.919Z,69.60
2022-12-05T07:58:24.561Z,66.70
2022-12-05T08:01:19.122Z,62.50
2022-12-05T08:04:02.159Z,62.90
2022-12-05T08:06:48.220Z,65.20
2022-12-05T08:09:31.007Z,70.00
2022-12-05T08:14:56.692Z,63.30
2022-12-05T08:20:22.408Z,65.60
2022-12-05T08:23:05.144Z,68.90
2022-12-05T08:28:31.691Z,72.30
2022-12-05T08:31:17.623Z,72.50
2022-12-05T08:34:01.116Z,70.00
2022-12-05T08:36:44.267Z,68.30
2022-12-05T08:39:27.507Z,67.40
2022-12-05T08:42:11.662Z,65.80
2022-12-05T08:44:54.484Z,67.90
2022-12-05T08:47:37.392Z,59.20
2022-12-05T08:50:22.450Z,67.20
2022-12-05T08:53:05.209Z,65.90
2022-12-05T08:58:31.452Z,65.00
2022-12-05T09:01:22.319Z,69.20
2022-12-05T09:04:05.967Z,66.20
2022-12-05T09:06:48.840Z,67.70
2022-12-05T09:09:32.697Z,68.50
2022-12-05T09:12:15.591Z,65.20
2022-12-05T09:14:58.541Z,62.90
2022-12-05T09:17:41.632Z,67.40
2022-12-05T09:20:24.592Z,70.30
2022-12-05T09:23:11.638Z,75.90
2022-12-05T09:25:58.260Z,65.80
2022-12-05T09:28:42.700Z,64.30
2022-12-05T09:31:27.551Z,63.50
2022-12-05T09:34:13.459Z,67.50
2022-12-05T09:37:10.555Z,71.10
2022-12-05T09:40:00.757Z,72.50
2022-12-05T09:43:07.311Z,71.20
2022-12-05T09:46:25.541Z,70.80
2022-12-05T09:49:11.171Z,60.50
2022-12-05T09:51:55.642Z,69.70
2022-12-05T09:54:38.504Z,61.10
2022-12-05T10:00:17.914Z,65.70
2022-12-05T10:03:21.759Z,65.70
2022-12-05T10:06:21.759Z,62.00
2022-12-05T10:09:13.931Z,67.50
2022-12-05T10:12:25.800Z,65.10
2022-12-05T10:15:46.058Z,60.40
2022-12-05T10:18:40.437Z,62.80
2022-12-05T10:21:36.671Z,70.10
2022-12-05T10:24:34.770Z,69.30
2022-12-05T10:27:39.521Z,73.20
2022-12-05T10:30:30.057Z,77.60
2022-12-05T10:33:19.548Z,65.30
2022-12-05T10:36:09.400Z,71.40
2022-12-05T10:38:52.845Z,64.80
2022-12-05T10:41:35.709Z,68.10
2022-12-05T10:47:01.992Z,70.50
2022-12-05T10:49:45.780Z,71.80
2022-12-05T10:52:30.938Z,68.80
2022-12-05T10:55:17.753Z,69.70
2022-12-05T10:58:17.800Z,71.70
2022-12-05T11:01:08.621Z,67.00
2022-12-05T11:03:58.524Z,63.70
2022-12-05T11:06:50.909Z,72.20
2022-12-05T11:09:37.078Z,65.10
2022-12-05T11:12:40.318Z,58.10
2022-12-05T11:15:28.149Z,62.30
2022-12-05T11:18:29.720Z,62.40
2022-12-05T11:21:14.748Z,60.40
2022-12-05T11:23:59.199Z,64.70
2022-12-05T11:26:42.832Z,75.90
2022-12-05T11:29:57.980Z,64.00
2022-12-05T11:32:40.729Z,66.20
2022-12-05T11:38:13.069Z,61.50
2022-12-05T11:41:20.820Z,59.30
2022-12-05T11:44:35.984Z,60.90
2022-12-05T11:47:40.408Z,65.60
2022-12-05T11:50:29.145Z,62.60
2022-12-05T11:53:37.447Z,62.90
2022-12-05T11:56:26.532Z,62.40
2022-12-05T11:59:27.732Z,56.40
2022-12-05T12:02:35.342Z,61.20
2022-12-05T12:05:28.301Z,62.90
2022-12-05T12:08:20.358Z,60.00
2022-12-05T12:11:21.983Z,56.70
2022-12-05T12:14:19.129Z,65.60
2022-12-05T12:17:18.319Z,67.40
2022-12-05T12:20:29.296Z,62.70
2022-12-05T12:23:24.468Z,64.20
2022-12-05T12:26:28.768Z,60.00
2022-12-05T12:29:45.482Z,65.80
2022-12-05T12:32:51.604Z,65.00
2022-12-05T12:35:53.988Z,67.90
2022-12-05T12:38:52.555Z,64.70
2022-12-05T12:41:53.396Z,64.20
2022-12-05T12:44:44.951Z,72.80
2022-12-05T12:48:05.338Z,68.40
2022-12-05T12:50:52.939Z,70.10
2022-12-05T12:54:06.560Z,67.70
2022-12-05T12:57:28.149Z,69.10
2022-12-05T13:00:39.963Z,72.00
2022-12-05T13:03:25.579Z,73.70
2022-12-05T13:06:08.452Z,71.90
2022-12-05T13:11:41.448Z,79.00
2022-12-05T13:14:27.429Z,69.10
2022-12-05T13:17:17.770Z,75.20
2022-12-05T13:20:01.020Z,76.00
2022-12-05T13:22:45.741Z,79.10
2022-12-05T13:25:33.027Z,79.10
2022-12-05T13:28:42.400Z,75.70
2022-12-05T13:31:58.286Z,74.70
2022-12-05T13:35:11.599Z,72.80
2022-12-05T13:38:13.444Z,80.80
2022-12-05T13:41:14.778Z,76.90
2022-12-05T13:44:06.459Z,82.40
2022-12-05T13:46:50.126Z,87.40
2022-12-05T13:49:42.045Z,82.20
2022-12-05T13:52:29.567Z,78.30
2022-12-05T13:55:35.906Z,88.40
2022-12-05T13:58:19.245Z,90.60
2022-12-05T14:04:21.602Z,78.90
2022-12-05T14:07:04.369Z,78.50
2022-12-05T14:13:24.044Z,76.90
2022-12-05T14:16:25.322Z,76.50
2022-12-05T14:19:41.064Z,76.50
2022-12-05T14:22:39.230Z,82.60
2022-12-05T14:25:49.000Z,69.70
2022-12-05T14:28:46.762Z,83.00
2022-12-05T14:31:51.621Z,73.10
2022-12-05T14:34:38.414Z,83.00
2022-12-05T14:37:29.247Z,87.80
2022-12-05T14:40:26.618Z,79.70
2022-12-05T14:43:27.704Z,82.50
2022-12-05T14:46:32.430Z,72.30
2022-12-05T14:49:53.591Z,70.10
2022-12-05T14:52:38.863Z,76.40
2022-12-05T14:55:26.840Z,74.60
2022-12-05T14:58:40.759Z,76.90
2022-12-05T15:01:29.324Z,75.70
2022-12-05T15:04:25.801Z,69.40
2022-12-05T15:07:21.692Z,72.20
2022-12-05T15:10:27.535Z,77.40
2022-12-05T15:13:15.207Z,73.50
2022-12-05T15:16:06.420Z,84.60
2022-12-05T15:18:53.568Z,75.40
2022-12-05T15:21:42.429Z,79.40
2022-12-05T15:24:25.435Z,76.80
2022-12-05T15:27:12.019Z,75.00
2022-12-05T15:29:55.460Z,77.90
2022-12-05T15:32:38.374Z,86.10
2022-12-05T15:35:25.629Z,83.10
2022-12-05T15:38:25.482Z,75.20
2022-12-05T15:41:18.026Z,82.90
2022-12-05T15:44:00.942Z,80.40
2022-12-05T15:46:43.876Z,77.20
2022-12-05T15:49:28.772Z,79.20
2022-12-05T15:52:38.948Z,78.90
2022-12-05T15:55:35.455Z,74.90
2022-12-05T15:58:27.304Z,74.90
2022-12-05T16:01:22.952Z,83.60
2022-12-05T16:04:16.350Z,78.40
2022-12-05T16:07:04.183Z,77.90
2022-12-05T16:09:47.911Z,75.80
2022-12-05T16:12:30.723Z,82.20
2022-12-05T16:18:01.664Z,77.30
2022-12-05T16:20:46.522Z,79.30
2022-12-05T16:26:21.886Z,83.30
2022-12-05T16:29:04.798Z,84.60
2022-12-05T16:31:58.040Z,84.00
2022-12-05T16:34:41.176Z,84.80
2022-12-05T16:37:27.357Z,88.90
2022-12-05T16:40:22.575Z,91.50
2022-12-05T16:43:17.397Z,87.50
2022-12-05T16:46:13.525Z,84.10
2022-12-05T16:49:21.474Z,90.20
2022-12-05T16:52:07.503Z,91.30
2022-12-05T16:54:50.753Z,89.90
2022-12-05T16:57:33.551Z,96.50
2022-12-05T17:03:25.771Z,100.50
2022-12-05T17:06:03.778Z,95.90
2022-12-05T17:08:47.049Z,87.40
2022-12-05T17:11:32.771Z,92.50
2022-12-05T17:14:17.543Z,84.10
2022-12-05T17:17:03.733Z,94.20
2022-12-05T17:19:46.786Z,98.30
2022-12-05T17:22:29.499Z,91.90
2022-12-05T17:25:19.560Z,99.50
2022-12-05T17:28:02.761Z,95.20
2022-12-05T17:30:45.972Z,91.00
2022-12-05T17:33:28.881Z,92.70
2022-12-05T17:36:12.192Z,101.00
2022-12-05T17:38:57.008Z,90.80
2022-12-05T17:41:39.896Z,108.10
2022-12-05T17:44:22.810Z,101.40
2022-12-05T17:49:50.990Z,102.60
2022-12-05T17:55:36.451Z,108.10
2022-12-05T17:58:19.281Z,108.90
2022-12-05T18:01:04.021Z,117.80
2022-12-05T18:03:48.133Z,103.90
2022-12-05T18:06:31.079Z,114.30
2022-12-05T18:11:56.870Z,113.50
2022-12-05T18:14:39.636Z,119.90
2022-12-05T18:20:09.180Z,110.20
2022-12-05T18:22:51.970Z,113.60
2022-12-05T18:28:19.568Z,121.80
2022-12-05T18:31:05.615Z,111.50
2022-12-05T18:33:48.592Z,119.50
2022-12-05T18:36:31.485Z,131.00
2022-12-05T18:39:17.224Z,121.30
2022-12-05T18:42:00.041Z,125.90
2022-12-05T18:47:25.945Z,122.60
2022-12-05T18:50:11.128Z,132.40
2022-12-05T18:52:54.050Z,129.10
2022-12-05T18:56:13.787Z,123.40
2022-12-05T18:58:39.834Z,121.00
2022-12-05T19:01:23.143Z,116.60
2022-12-05T19:04:08.716Z,120.20
2022-12-05T19:06:54.041Z,114.20
2022-12-05T19:09:36.918Z,103.90
2022-12-05T19:12:21.184Z,114.10
2022-12-05T19:15:05.271Z,112.00
2022-12-05T19:17:48.144Z,112.10
2022-12-05T19:20:30.904Z,114.00
2022-12-05T19:26:01.005Z,115.40
2022-12-05T19:28:43.839Z,112.30
2022-12-05T19:34:11.438Z,108.00
2022-12-05T19:36:55.093Z,114.40
2022-12-05T19:39:38.151Z,111.80
2022-12-05T19:42:21.009Z,110.70
2022-12-05T19:45:09.516Z,102.60
2022-12-05T19:47:54.084Z,113.10
2022-12-05T19:53:19.722Z,111.50
2022-12-05T19:56:03.949Z,106.00
2022-12-05T19:58:47.863Z,108.60
2022-12-05T20:01:33.439Z,106.90
2022-12-05T20:04:16.971Z,100.60
2022-12-05T20:07:01.157Z,97.10
2022-12-05T20:09:43.947Z,104.50
2022-12-05T20:15:10.716Z,108.90
2022-12-05T20:17:53.988Z,111.70
2022-12-05T20:23:19.376Z,104.60
2022-12-05T20:26:07.965Z,108.70
2022-12-05T20:28:54.755Z,115.30
2022-12-05T20:31:40.593Z,103.80
2022-12-05T20:34:24.830Z,100.90
2022-12-05T20:37:07.644Z,106.90
2022-12-05T20:42:33.908Z,116.10
2022-12-05T20:47:59.459Z,100.30
2022-12-05T20:50:42.523Z,103.80
2022-12-05T20:53:25.314Z,95.60
2022-12-05T20:58:55.984Z,103.60
2022-12-05T21:01:40.296Z,98.10
2022-12-05T21:04:23.442Z,94.00
2022-12-05T21:07:06.724Z,103.80
2022-12-05T21:09:49.474Z,109.20
2022-12-05T21:15:14.960Z,99.90
2022-12-05T21:17:58.116Z,101.80
2022-12-05T21:20:42.373Z,106.20
2022-12-05T21:23:26.171Z,111.20
2022-12-05T21:26:12.903Z,105.10
2022-12-05T21:28:57.762Z,104.40
2022-12-05T21:31:42.591Z,104.10
2022-12-05T21:34:25.441Z,103.10
2022-12-05T21:39:51.981Z,101.20
2022-12-05T21:42:35.608Z,103.00
2022-12-05T21:45:18.369Z,113.60
2022-12-05T21:50:43.840Z,113.80
2022-12-05T21:56:12.420Z,103.70
2022-12-05T21:58:55.322Z,104.70
2022-12-05T22:01:38.187Z,100.90
2022-12-05T22:04:21.178Z,102.40
2022-12-05T22:07:04.004Z,115.70
2022-12-05T22:12:34.121Z,109.40
2022-12-05T22:15:17.054Z,111.40
2022-12-05T22:17:59.761Z,103.10
2022-12-05T22:23:25.326Z,105.20
2022-12-05T22:28:56.466Z,102.90
2022-12-05T22:31:39.390Z,115.60
2022-12-05T22:34:22.242Z,116.20
2022-12-05T22:39:47.724Z,111.20
2022-12-05T22:42:30.448Z,101.60
2022-12-05T22:45:13.378Z,116.30
2022-12-05T22:47:56.118Z,98.70
2022-12-05T22:53:23.731Z,105.40
2022-12-05T22:56:09.655Z,100.80
2022-12-05T22:59:00.760Z,116.10
2022-12-05T23:01:43.544Z,109.00
2022-12-05T23:07:09.400Z,104.90
2022-12-05T23:12:35.093Z,111.00
2022-12-05T23:18:01.880Z,103.50
2022-12-05T23:20:44.600Z,105.20
2022-12-05T23:26:14.770Z,101.40
2022-12-05T23:28:57.618Z,102.60
2022-12-05T23:31:41.935Z,100.40
2022-12-05T23:34:25.095Z,100.80
2022-12-05T23:37:08.011Z,98.90
2022-12-05T23:39:51.133Z,100.40
2022-12-05T23:42:33.995Z,104.00
2022-12-05T23:45:16.958Z,92.00
2022-12-05T23:48:04.374Z,96.00
2022-12-05T23:51:16.764Z,93.90
2022-12-05T23:54:02.236Z,100.20
2022-12-05T23:56:45.313Z,95.80
2022-12-05T23:59:28.065Z,87.60
